createdAt,value
2022-09-26T00:02:29.626Z,14.16
2022-09-26T00:05:54.916Z,14.15
2022-09-26T00:09:20.364Z,14.15
2022-09-26T00:12:45.856Z,14.14
2022-09-26T00:16:11.269Z,14.17
2022-09-26T00:19:36.667Z,14.16
2022-09-26T00:23:02.121Z,14.18
2022-09-26T00:26:27.527Z,14.18
2022-09-26T00:29:52.938Z,14.17
2022-09-26T00:33:18.295Z,14.14
2022-09-26T00:36:43.783Z,14.08
2022-09-26T00:40:09.172Z,14.07
2022-09-26T00:43:34.573Z,14.03
2022-09-26T00:47:00.080Z,14.01
2022-09-26T00:50:25.512Z,13.96
2022-09-26T00:53:50.927Z,13.89
2022-09-26T00:57:16.336Z,13.83
2022-09-26T01:00:42.427Z,13.78
2022-09-26T01:04:07.198Z,13.73
2022-09-26T01:07:32.600Z,13.72
2022-09-26T01:10:58.008Z,13.77
2022-09-26T01:14:23.428Z,13.8
2022-09-26T01:17:48.804Z,13.81
2022-09-26T01:21:14.228Z,13.82
2022-09-26T01:24:39.603Z,13.85
2022-09-26T01:28:05.023Z,13.9
2022-09-26T01:31:30.403Z,13.95
2022-09-26T01:34:55.885Z,13.97
2022-09-26T01:38:21.422Z,13.99
2022-09-26T01:41:46.782Z,13.99
2022-09-26T01:45:12.214Z,13.98
2022-09-26T01:48:37.636Z,13.98
2022-09-26T01:52:03.052Z,13.99
2022-09-26T01:55:28.482Z,14.01
2022-09-26T01:58:53.894Z,14.04
2022-09-26T02:02:19.538Z,14.07
2022-09-26T02:05:44.882Z,14.08
2022-09-26T02:09:10.307Z,14.1
2022-09-26T02:12:35.872Z,14.1
2022-09-26T02:16:01.209Z,14.1
2022-09-26T02:19:26.728Z,14.1
2022-09-26T02:22:52.091Z,14.12
2022-09-26T02:26:17.498Z,14.13
2022-09-26T02:29:42.907Z,14.15
2022-09-26T02:33:08.302Z,14.15
2022-09-26T02:36:33.708Z,14.16
2022-09-26T02:39:59.105Z,14.17
2022-09-26T02:43:24.500Z,14.15
2022-09-26T02:46:50.019Z,14.14
2022-09-26T02:50:15.405Z,14.14
2022-09-26T02:53:40.837Z,14.14
2022-09-26T02:57:06.344Z,14.13
2022-09-26T03:00:31.722Z,14.11
2022-09-26T03:03:57.139Z,14.13
2022-09-26T03:07:22.518Z,14.11
2022-09-26T03:10:48.009Z,14.12
2022-09-26T03:14:13.395Z,14.11
2022-09-26T03:17:38.799Z,14.09
2022-09-26T03:21:04.211Z,14.08
2022-09-26T03:24:29.661Z,14.06
2022-09-26T03:27:55.071Z,14.03
2022-09-26T03:31:20.479Z,14.01
2022-09-26T03:34:45.914Z,13.99
2022-09-26T03:38:14.333Z,13.99
2022-09-26T03:41:36.797Z,13.96
2022-09-26T03:45:02.207Z,13.97
2022-09-26T03:48:27.602Z,13.96
2022-09-26T03:51:52.997Z,13.97
2022-09-26T03:55:18.421Z,13.96
2022-09-26T03:58:43.831Z,13.95
2022-09-26T04:02:09.252Z,13.95
2022-09-26T04:05:34.691Z,13.95
2022-09-26T04:09:00.180Z,13.9
2022-09-26T04:12:25.636Z,13.83
2022-09-26T04:15:51.022Z,13.76
2022-09-26T04:19:16.432Z,13.67
2022-09-26T04:22:41.841Z,13.61
2022-09-26T04:26:07.259Z,13.58
2022-09-26T04:29:32.742Z,13.56
2022-09-26T04:32:58.150Z,13.5
2022-09-26T04:36:23.552Z,13.46
2022-09-26T04:39:49.022Z,13.41
2022-09-26T04:43:14.437Z,13.35
2022-09-26T04:46:39.873Z,13.3
2022-09-26T04:50:05.251Z,13.22
2022-09-26T04:53:30.680Z,13.13
2022-09-26T04:56:56.109Z,13.06
2022-09-26T05:00:21.569Z,13
2022-09-26T05:03:47.019Z,12.96
2022-09-26T05:07:12.588Z,12.93
2022-09-26T05:10:38.008Z,12.91
2022-09-26T05:14:03.434Z,12.87
2022-09-26T05:17:28.868Z,12.83
2022-09-26T05:20:54.344Z,12.78
2022-09-26T05:24:19.807Z,12.73
2022-09-26T05:27:45.250Z,12.69
2022-09-26T05:31:10.682Z,12.64
2022-09-26T05:34:36.102Z,12.62
2022-09-26T05:38:01.583Z,12.61
2022-09-26T05:41:26.981Z,12.62
2022-09-26T05:44:52.447Z,12.62
2022-09-26T05:48:17.882Z,12.61
2022-09-26T05:51:43.304Z,12.61
2022-09-26T05:55:08.770Z,12.63
2022-09-26T05:58:34.182Z,12.64
2022-09-26T06:01:59.699Z,12.65
2022-09-26T06:05:25.078Z,12.67
2022-09-26T06:08:50.519Z,12.66
2022-09-26T06:12:15.957Z,12.65
2022-09-26T06:15:41.440Z,12.64
2022-09-26T06:19:06.932Z,12.65
2022-09-26T06:22:32.272Z,12.7
2022-09-26T06:25:57.658Z,12.74
2022-09-26T06:29:23.121Z,12.78
2022-09-26T06:32:48.529Z,12.82
2022-09-26T06:36:13.920Z,12.8
2022-09-26T06:39:39.321Z,12.78
2022-09-26T06:43:04.770Z,12.77
2022-09-26T06:46:30.296Z,12.78
2022-09-26T06:49:55.677Z,12.82
2022-09-26T06:53:21.090Z,12.84
2022-09-26T06:56:46.550Z,12.87
2022-09-26T07:00:11.979Z,12.87
2022-09-26T07:03:40.547Z,12.92
2022-09-26T07:07:03.362Z,12.99
2022-09-26T07:10:28.770Z,13.02
2022-09-26T07:13:54.188Z,13.04
2022-09-26T07:17:19.631Z,13.05
2022-09-26T07:20:45.097Z,13.09
2022-09-26T07:24:10.497Z,13.12
2022-09-26T07:27:35.924Z,13.18
2022-09-26T07:31:01.469Z,13.2
2022-09-26T07:34:26.865Z,13.25
2022-09-26T07:37:52.333Z,13.31
2022-09-26T07:41:17.764Z,13.38
2022-09-26T07:48:08.661Z,13.38
2022-09-26T07:51:34.123Z,13.38
2022-09-26T07:54:59.564Z,13.38
2022-09-26T07:58:24.977Z,13.4
2022-09-26T08:01:50.411Z,13.45
2022-09-26T08:05:15.866Z,13.47
2022-09-26T08:08:41.324Z,13.52
2022-09-26T08:12:06.790Z,13.59
2022-09-26T08:15:32.214Z,13.61
2022-09-26T08:18:57.682Z,13.63
2022-09-26T08:22:23.116Z,13.63
2022-09-26T08:25:48.559Z,13.64
2022-09-26T08:29:14.062Z,13.63
2022-09-26T08:32:39.361Z,13.63
2022-09-26T08:36:04.808Z,13.63
2022-09-26T08:39:33.361Z,13.63
2022-09-26T08:42:55.685Z,13.73
2022-09-26T08:46:21.207Z,13.85
2022-09-26T08:49:46.538Z,13.91
2022-09-26T08:53:11.983Z,14
2022-09-26T08:56:37.373Z,13.98
2022-09-26T09:00:03.049Z,13.93
2022-09-26T09:03:28.575Z,13.88
2022-09-26T09:06:53.997Z,13.86
2022-09-26T09:10:19.447Z,13.87
2022-09-26T09:13:44.898Z,13.88
2022-09-26T09:17:10.321Z,13.94
2022-09-26T09:20:35.818Z,14.01
2022-09-26T09:24:01.206Z,14.06
2022-09-26T09:30:52.045Z,14.22
2022-09-26T09:34:17.459Z,14.32
2022-09-26T09:37:42.918Z,14.37
2022-09-26T09:41:08.306Z,14.37
2022-09-26T09:44:33.729Z,14.38
2022-09-26T09:47:59.152Z,14.42
2022-09-26T09:51:24.562Z,14.52
2022-09-26T09:54:50.016Z,14.65
2022-09-26T09:58:15.439Z,14.77
2022-09-26T10:01:40.844Z,14.84
2022-09-26T10:05:06.120Z,14.89
2022-09-26T10:08:31.556Z,14.9
2022-09-26T10:11:57.071Z,14.92
2022-09-26T10:15:22.564Z,14.92
2022-09-26T10:18:47.958Z,14.87
2022-09-26T10:22:13.377Z,14.97
2022-09-26T10:25:38.833Z,15.15
2022-09-26T10:29:04.318Z,15.23
2022-09-26T10:32:29.747Z,15.3
2022-09-26T10:35:55.191Z,15.27
2022-09-26T10:39:20.895Z,15.29
2022-09-26T10:42:46.317Z,15.25
2022-09-26T10:46:11.832Z,15.24
2022-09-26T10:49:37.142Z,15.35
2022-09-26T10:53:02.617Z,15.5
2022-09-26T10:56:28.080Z,15.66
2022-09-26T10:59:54.396Z,15.71
2022-09-26T11:03:21.425Z,15.73
2022-09-26T11:06:46.798Z,15.69
2022-09-26T11:10:12.219Z,15.75
2022-09-26T11:13:37.661Z,15.89
2022-09-26T11:17:03.138Z,15.97
2022-09-26T11:20:28.543Z,15.96
2022-09-26T11:23:54.006Z,15.87
2022-09-26T11:27:19.455Z,15.77
2022-09-26T11:30:44.995Z,15.7
2022-09-26T11:34:10.428Z,15.67
2022-09-26T11:37:35.954Z,15.66
2022-09-26T11:41:01.381Z,15.68
2022-09-26T11:44:26.830Z,15.73
2022-09-26T11:47:52.309Z,15.71
2022-09-26T11:51:17.724Z,15.66
2022-09-26T11:54:43.186Z,15.52
2022-09-26T11:58:08.609Z,15.42
2022-09-26T12:01:34.070Z,15.35
2022-09-26T12:05:00.171Z,15.26
2022-09-26T12:08:25.593Z,15.18
2022-09-26T12:11:51.091Z,15.17
2022-09-26T12:15:16.478Z,15.14
2022-09-26T12:18:41.959Z,15.07
2022-09-26T12:22:07.419Z,15.03
2022-09-26T12:25:32.835Z,14.94
2022-09-26T12:28:58.313Z,14.91
2022-09-26T12:32:23.760Z,14.92
2022-09-26T12:35:49.246Z,14.94
2022-09-26T12:39:14.753Z,14.95
2022-09-26T12:42:40.137Z,14.94
2022-09-26T12:46:05.683Z,14.93
2022-09-26T12:49:31.010Z,15
2022-09-26T12:52:56.503Z,15.15
2022-09-26T12:56:21.964Z,15.29
2022-09-26T12:59:47.408Z,15.41
2022-09-26T13:03:13.005Z,15.45
2022-09-26T13:06:38.379Z,15.45
2022-09-26T13:10:03.867Z,15.48
2022-09-26T13:13:29.360Z,15.46
2022-09-26T13:16:54.814Z,15.46
2022-09-26T13:20:20.312Z,15.5
2022-09-26T13:23:45.759Z,15.49
2022-09-26T13:27:11.933Z,15.44
2022-09-26T13:30:37.425Z,15.44
2022-09-26T13:34:02.929Z,15.39
2022-09-26T13:37:28.495Z,15.37
2022-09-26T13:40:54.016Z,15.37
2022-09-26T13:44:19.397Z,15.39
2022-09-26T13:47:44.877Z,15.35
2022-09-26T13:51:10.400Z,15.33
2022-09-26T13:54:35.875Z,15.3
2022-09-26T13:58:01.341Z,15.27
2022-09-26T14:01:26.875Z,15.2
2022-09-26T14:04:52.312Z,15.21
2022-09-26T14:08:17.792Z,15.25
2022-09-26T14:11:43.265Z,15.3
2022-09-26T14:15:08.696Z,15.39
2022-09-26T14:18:34.220Z,15.4
2022-09-26T14:21:59.692Z,15.41
2022-09-26T14:25:25.142Z,15.43
2022-09-26T14:28:50.658Z,15.4
2022-09-26T15:03:22.119Z,13.19
2022-09-26T15:06:47.570Z,14.13
2022-09-26T15:10:13.003Z,14.34
2022-09-26T15:13:38.629Z,14.54
2022-09-26T15:17:04.310Z,14.67
2022-09-26T15:20:29.807Z,14.7
2022-09-26T15:23:55.187Z,14.7
2022-09-26T15:27:20.587Z,14.7
2022-09-26T15:30:46.054Z,14.7
2022-09-26T15:34:11.499Z,14.71
2022-09-26T15:37:36.963Z,14.71
2022-09-26T15:41:02.445Z,14.66
2022-09-26T15:44:27.880Z,14.64
2022-09-26T15:47:53.359Z,14.67
2022-09-26T15:51:18.837Z,14.68
2022-09-26T15:54:44.409Z,14.68
2022-09-26T15:58:09.809Z,14.66
2022-09-26T16:01:35.255Z,14.63
2022-09-26T16:05:00.691Z,14.6
2022-09-26T16:08:26.138Z,14.57
2022-09-26T16:11:51.635Z,14.54
2022-09-26T16:15:17.102Z,14.5
2022-09-26T16:18:42.564Z,14.46
2022-09-26T16:22:08.022Z,14.42
2022-09-26T16:25:33.469Z,14.4
2022-09-26T16:28:58.962Z,14.38
2022-09-26T16:32:24.409Z,14.33
2022-09-26T16:35:49.880Z,14.3
2022-09-26T16:39:15.528Z,14.26
2022-09-26T16:42:40.968Z,14.24
2022-09-26T16:46:06.504Z,14.22
2022-09-26T16:49:31.891Z,14.14
2022-09-26T16:52:57.327Z,14.07
2022-09-26T16:56:22.818Z,14.03
2022-09-26T16:59:48.299Z,14.01
2022-09-26T17:03:13.845Z,13.99
2022-09-26T17:06:39.130Z,14.01
2022-09-26T17:10:04.622Z,14.01
2022-09-26T17:13:30.096Z,14.02
2022-09-26T17:16:55.561Z,14
2022-09-26T17:20:21.089Z,13.99
2022-09-26T17:23:46.576Z,13.95
2022-09-26T17:27:12.000Z,13.91
2022-09-26T17:30:37.486Z,13.85
2022-09-26T17:34:02.905Z,13.8
2022-09-26T17:37:28.344Z,13.76
2022-09-26T17:40:56.877Z,13.77
2022-09-26T17:44:44.958Z,13.77
2022-09-26T17:48:52.385Z,13.8
2022-09-26T17:52:18.102Z,13.78
2022-09-26T17:55:43.688Z,13.79
2022-09-26T17:59:09.265Z,13.77
2022-09-26T18:02:34.698Z,13.73
2022-09-26T18:06:00.102Z,13.73
2022-09-26T18:09:25.802Z,13.68
2022-09-26T18:12:51.302Z,13.67
2022-09-26T18:16:16.823Z,13.63
2022-09-26T18:19:42.374Z,13.63
2022-09-26T18:23:07.890Z,13.62
2022-09-26T18:26:33.387Z,13.63
2022-09-26T18:29:58.998Z,13.65
2022-09-26T18:33:25.160Z,13.66
2022-09-26T18:36:50.605Z,13.65
2022-09-26T18:40:16.165Z,13.63
2022-09-26T18:43:41.595Z,13.62
2022-09-26T18:47:07.085Z,13.59
2022-09-26T18:50:32.517Z,13.58
2022-09-26T18:53:58.015Z,13.6
2022-09-26T18:57:23.431Z,13.63
2022-09-26T19:00:48.922Z,13.6
2022-09-26T19:04:14.620Z,13.59
2022-09-26T19:07:39.824Z,13.58
2022-09-26T19:11:05.249Z,13.58
2022-09-26T19:14:30.733Z,13.55
2022-09-26T19:17:56.215Z,13.5
2022-09-26T19:21:21.682Z,13.46
2022-09-26T19:24:47.154Z,13.4
2022-09-26T19:28:12.617Z,13.37
2022-09-26T19:31:38.026Z,13.38
2022-09-26T19:35:03.511Z,13.34
2022-09-26T19:38:28.985Z,13.33
2022-09-26T19:41:54.383Z,13.34
2022-09-26T19:45:19.889Z,13.33
2022-09-26T19:48:45.408Z,13.33
2022-09-26T19:52:10.842Z,13.34
2022-09-26T19:55:36.379Z,13.35
2022-09-26T19:59:01.806Z,13.33
2022-09-26T20:02:27.310Z,13.29
2022-09-26T20:05:52.779Z,13.28
2022-09-26T20:09:18.178Z,13.25
2022-09-26T20:12:43.741Z,13.18
2022-09-26T20:16:09.143Z,13.12
2022-09-26T20:19:34.581Z,13.03
2022-09-26T20:23:00.139Z,13.03
2022-09-26T20:26:25.599Z,13.02
2022-09-26T20:29:51.080Z,12.99
2022-09-26T20:33:16.537Z,12.94
2022-09-26T20:36:41.944Z,12.91
2022-09-26T20:40:07.457Z,12.92
2022-09-26T20:43:32.924Z,12.95
2022-09-26T20:46:58.412Z,12.98
2022-09-26T20:50:23.843Z,12.99
2022-09-26T20:53:49.349Z,13.02
2022-09-26T20:57:14.794Z,13.04
2022-09-26T21:00:40.270Z,13.08
2022-09-26T21:04:05.751Z,13.03
2022-09-26T21:07:31.217Z,13.04
2022-09-26T21:10:56.668Z,13.06
2022-09-26T21:14:22.124Z,13.09
2022-09-26T21:17:47.601Z,13.12
2022-09-26T21:21:13.084Z,13.15
2022-09-26T21:24:38.500Z,13.2
2022-09-26T21:28:03.931Z,13.24
2022-09-26T21:31:29.364Z,13.26
2022-09-26T21:34:54.836Z,13.33
2022-09-26T21:38:20.322Z,13.36
2022-09-26T21:41:45.825Z,13.41
2022-09-26T21:45:11.252Z,13.44
2022-09-26T21:48:36.690Z,13.46
2022-09-26T21:52:02.856Z,13.43
2022-09-26T21:55:28.269Z,13.41
2022-09-26T21:58:53.652Z,13.4
2022-09-26T22:02:19.188Z,13.38
2022-09-26T22:05:44.588Z,13.36
2022-09-26T22:09:10.180Z,13.32
2022-09-26T22:12:35.563Z,13.25
2022-09-26T22:16:00.985Z,13.19
2022-09-26T22:19:26.401Z,13.19
2022-09-26T22:22:51.842Z,13.18
2022-09-26T22:26:17.291Z,13.13
2022-09-26T22:29:42.730Z,13.08
2022-09-26T22:33:08.138Z,13.03
2022-09-26T22:36:33.597Z,12.97
2022-09-26T22:39:59.003Z,12.91
2022-09-26T22:43:24.518Z,12.86
2022-09-26T22:46:49.907Z,12.85
2022-09-26T22:50:15.333Z,12.82
2022-09-26T22:53:40.766Z,12.77
2022-09-26T22:57:06.210Z,12.73
2022-09-26T23:00:31.679Z,12.69
2022-09-26T23:03:57.080Z,12.68
2022-09-26T23:07:22.515Z,12.66
2022-09-26T23:10:47.898Z,12.66
2022-09-26T23:14:13.345Z,12.65
2022-09-26T23:17:38.806Z,12.69
2022-09-26T23:21:04.264Z,12.71
2022-09-26T23:24:29.691Z,12.69
2022-09-26T23:27:55.135Z,12.64
2022-09-26T23:31:20.631Z,12.61
2022-09-26T23:34:45.990Z,12.58
2022-09-26T23:38:11.392Z,12.59
2022-09-26T23:41:36.791Z,12.58
2022-09-26T23:45:02.213Z,12.55
2022-09-26T23:48:27.642Z,12.56
2022-09-26T23:51:53.124Z,12.57
2022-09-26T23:55:18.554Z,12.6
2022-09-26T23:58:43.939Z,12.6
